Pagina principale
METAR-TAF:

METAR-TAF

Aeroporti :

Montichiari

Brescia, Italia

latitudine: 45-24-02N, longitudine: 010-18-59E, altezza: 104 m

Osservazione

Il bollettino è stato emesso 17 minuti fa, alle 13:20 UTC
Vento 7 kt da sud-ovest, variando fra sud e ovest
Temperature 5°C
Umidità 38%
Pressione 1036 hPa
Visibilità 10 km o più

METAR: LIPO 091320Z AUTO 23007KT 180V270 9999 NCD 05/M08 Q1036

Ora: 14:37 (13:37 UTC)

Previsione

Il bollettino è stato emesso 2 ore e 37 minuti fa, alle 11:00 UTC
Previsione valida dal 09 alle 12 UTC al 10 alle 12 UTC
Vento 8 kt da ovest
Visibilità 10 km o più
nessuna nube inferiore a 1500 m e nessun cumulonembo

TAF: LIPO 091100Z 0912/1012 28008KT CAVOK

Osservazioni e previsioni meteorologiche di più di 4000 aeroporti (messaggi METAR e TAF).

Le stazioni disponibili sono rappresentate dai dischi gialli e rossi sulla carta.

Puntare il mouse per vedere il nome della stazione.

Clicca sopra per visualizzare le osservazioni e previsioni meteorologiche.

Per cambiare la mappa : fare clic sui pulsanti verdi con una croce nera per ingrandire, il pulsante verde con un trattino per diminuire, o sulla freccia verde per le mappe adiacenti.


METAR-TAF: